sensor_id;sensor_type;location;lat;lon;timestamp;P1;P2;P0
84751;PMS5003;74978;37.772;-122.432;2023-12-29T00:01:45;33;27;
84751;PMS5003;74978;37.772;-122.432;2023-12-29T00:04:10;34;27;
84751;PMS5003;74978;37.772;-122.432;2023-12-29T00:06:37;34;29;
84751;PMS5003;74978;37.772;-122.432;2023-12-29T00:09:01;28;27;
84751;PMS5003;74978;37.772;-122.432;2023-12-29T00:11:28;32;28;
84751;PMS5003;74978;37.772;-122.432;2023-12-29T00:13:53;34;30;
84751;PMS5003;74978;37.772;-122.432;2023-12-29T00:16:18;49;40;
84751;PMS5003;74978;37.772;-122.432;2023-12-29T00:18:43;28;27;
84751;PMS5003;74978;37.772;-122.432;2023-12-29T00:21:09;31;28;
84751;PMS5003;74978;37.772;-122.432;2023-12-29T00:23:35;35;29;
84751;PMS5003;74978;37.772;-122.432;2023-12-29T00:26:00;29;27;
84751;PMS5003;74978;37.772;-122.432;2023-12-29T00:28:26;33;31;
84751;PMS5003;74978;37.772;-122.432;2023-12-29T00:30:51;33;29;
84751;PMS5003;74978;37.772;-122.432;2023-12-29T00:33:16;37;35;
84751;PMS5003;74978;37.772;-122.432;2023-12-29T00:35:42;36;35;
84751;PMS5003;74978;37.772;-122.432;2023-12-29T00:38:07;31;30;
84751;PMS5003;74978;37.772;-122.432;2023-12-29T00:40:33;30;30;
84751;PMS5003;74978;37.772;-122.432;2023-12-29T00:42:58;31;29;
84751;PMS5003;74978;37.772;-122.432;2023-12-29T00:45:23;33;30;
84751;PMS5003;74978;37.772;-122.432;2023-12-29T00:47:49;25;25;
84751;PMS5003;74978;37.772;-122.432;2023-12-29T00:50:14;28;27;
84751;PMS5003;74978;37.772;-122.432;2023-12-29T00:52:39;39;31;
84751;PMS5003;74978;37.772;-122.432;2023-12-29T00:55:05;34;30;
84751;PMS5003;74978;37.772;-122.432;2023-12-29T00:57:30;36;28;
84751;PMS5003;74978;37.772;-122.432;2023-12-29T00:59:56;28;25;
84751;PMS5003;74978;37.772;-122.432;2023-12-29T01:02:21;28;27;
84751;PMS5003;74978;37.772;-122.432;2023-12-29T01:04:46;32;30;
84751;PMS5003;74978;37.772;-122.432;2023-12-29T01:07:12;28;23;
84751;PMS5003;74978;37.772;-122.432;2023-12-29T01:09:37;27;27;
84751;PMS5003;74978;37.772;-122.432;2023-12-29T01:12:03;29;27;
84751;PMS5003;74978;37.772;-122.432;2023-12-29T01:14:28;29;23;
84751;PMS5003;74978;37.772;-122.432;2023-12-29T01:16:54;34;27;
84751;PMS5003;74978;37.772;-122.432;2023-12-29T01:19:20;30;29;
84751;PMS5003;74978;37.772;-122.432;2023-12-29T01:21:45;36;31;
84751;PMS5003;74978;37.772;-122.432;2023-12-29T01:24:11;27;26;
84751;PMS5003;74978;37.772;-122.432;2023-12-29T01:26:37;29;28;
84751;PMS5003;74978;37.772;-122.432;2023-12-29T01:29:02;33;31;
84751;PMS5003;74978;37.772;-122.432;2023-12-29T01:31:28;29;25;
84751;PMS5003;74978;37.772;-122.432;2023-12-29T01:33:53;28;26;
84751;PMS5003;74978;37.772;-122.432;2023-12-29T01:36:19;36;33;
84751;PMS5003;74978;37.772;-122.432;2023-12-29T01:38:44;26;24;
84751;PMS5003;74978;37.772;-122.432;2023-12-29T01:41:09;30;25;
84751;PMS5003;74978;37.772;-122.432;2023-12-29T01:43:35;33;31;
84751;PMS5003;74978;37.772;-122.432;2023-12-29T01:46:00;33;28;
84751;PMS5003;74978;37.772;-122.432;2023-12-29T01:48:27;31;29;
84751;PMS5003;74978;37.772;-122.432;2023-12-29T01:50:52;29;27;
84751;PMS5003;74978;37.772;-122.432;2023-12-29T01:53:17;30;29;
84751;PMS5003;74978;37.772;-122.432;2023-12-29T01:55:42;33;31;
84751;PMS5003;74978;37.772;-122.432;2023-12-29T01:58:07;36;31;
84751;PMS5003;74978;37.772;-122.432;2023-12-29T02:00:34;32;27;
84751;PMS5003;74978;37.772;-122.432;2023-12-29T02:02:58;29;29;
84751;PMS5003;74978;37.772;-122.432;2023-12-29T02:05:24;35;34;
84751;PMS5003;74978;37.772;-122.432;2023-12-29T02:07:51;30;27;
84751;PMS5003;74978;37.772;-122.432;2023-12-29T02:10:15;28;25;
84751;PMS5003;74978;37.772;-122.432;2023-12-29T02:12:40;36;33;
84751;PMS5003;74978;37.772;-122.432;2023-12-29T02:15:06;30;28;
84751;PMS5003;74978;37.772;-122.432;2023-12-29T02:17:32;33;30;
84751;PMS5003;74978;37.772;-122.432;2023-12-29T02:19:56;33;33;
84751;PMS5003;74978;37.772;-122.432;2023-12-29T02:22:21;32;31;
84751;PMS5003;74978;37.772;-122.432;2023-12-29T02:24:48;37;31;
84751;PMS5003;74978;37.772;-122.432;2023-12-29T02:27:17;36;32;
84751;PMS5003;74978;37.772;-122.432;2023-12-29T02:29:38;44;39;
84751;PMS5003;74978;37.772;-122.432;2023-12-29T02:32:04;36;36;
84751;PMS5003;74978;37.772;-122.432;2023-12-29T02:34:29;43;35;
84751;PMS5003;74978;37.772;-122.432;2023-12-29T02:36:55;34;31;
84751;PMS5003;74978;37.772;-122.432;2023-12-29T02:39:20;34;33;
84751;PMS5003;74978;37.772;-122.432;2023-12-29T02:41:45;37;34;
84751;PMS5003;74978;37.772;-122.432;2023-12-29T02:44:11;36;34;
84751;PMS5003;74978;37.772;-122.432;2023-12-29T02:46:36;39;32;
84751;PMS5003;74978;37.772;-122.432;2023-12-29T02:49:02;42;38;
84751;PMS5003;74978;37.772;-122.432;2023-12-29T02:51:27;39;39;
84751;PMS5003;74978;37.772;-122.432;2023-12-29T02:53:52;39;32;
84751;PMS5003;74978;37.772;-122.432;2023-12-29T02:56:18;45;39;
84751;PMS5003;74978;37.772;-122.432;2023-12-29T02:58:43;37;32;
84751;PMS5003;74978;37.772;-122.432;2023-12-29T03:01:10;37;34;
84751;PMS5003;74978;37.772;-122.432;2023-12-29T03:03:34;36;35;
84751;PMS5003;74978;37.772;-122.432;2023-12-29T03:06:00;37;35;
84751;PMS5003;74978;37.772;-122.432;2023-12-29T03:08:26;28;26;
84751;PMS5003;74978;37.772;-122.432;2023-12-29T03:10:51;43;39;
84751;PMS5003;74978;37.772;-122.432;2023-12-29T03:13:17;35;32;
84751;PMS5003;74978;37.772;-122.432;2023-12-29T03:15:42;36;33;
84751;PMS5003;74978;37.772;-122.432;2023-12-29T03:18:07;34;32;
84751;PMS5003;74978;37.772;-122.432;2023-12-29T03:20:32;38;36;
84751;PMS5003;74978;37.772;-122.432;2023-12-29T03:22:58;36;33;
84751;PMS5003;74978;37.772;-122.432;2023-12-29T03:25:24;43;37;
84751;PMS5003;74978;37.772;-122.432;2023-12-29T03:27:49;78;73;
84751;PMS5003;74978;37.772;-122.432;2023-12-29T03:30:14;64;59;
84751;PMS5003;74978;37.772;-122.432;2023-12-29T03:32:40;53;49;
84751;PMS5003;74978;37.772;-122.432;2023-12-29T03:35:05;53;49;
84751;PMS5003;74978;37.772;-122.432;2023-12-29T03:37:31;49;41;
84751;PMS5003;74978;37.772;-122.432;2023-12-29T03:39:56;39;37;
84751;PMS5003;74978;37.772;-122.432;2023-12-29T03:42:21;46;43;
84751;PMS5003;74978;37.772;-122.432;2023-12-29T03:44:46;37;36;
84751;PMS5003;74978;37.772;-122.432;2023-12-29T03:47:12;44;41;
84751;PMS5003;74978;37.772;-122.432;2023-12-29T03:49:37;41;41;
84751;PMS5003;74978;37.772;-122.432;2023-12-29T03:52:03;41;36;
84751;PMS5003;74978;37.772;-122.432;2023-12-29T03:54:27;38;33;
84751;PMS5003;74978;37.772;-122.432;2023-12-29T03:56:53;39;35;
84751;PMS5003;74978;37.772;-122.432;2023-12-29T03:59:19;40;37;
84751;PMS5003;74978;37.772;-122.432;2023-12-29T04:01:45;39;36;
84751;PMS5003;74978;37.772;-122.432;2023-12-29T04:04:10;44;42;
84751;PMS5003;74978;37.772;-122.432;2023-12-29T04:06:35;35;33;
84751;PMS5003;74978;37.772;-122.432;2023-12-29T04:09:00;39;34;
84751;PMS5003;74978;37.772;-122.432;2023-12-29T04:11:25;37;36;
84751;PMS5003;74978;37.772;-122.432;2023-12-29T04:13:51;44;38;
84751;PMS5003;74978;37.772;-122.432;2023-12-29T04:16:16;44;38;
84751;PMS5003;74978;37.772;-122.432;2023-12-29T04:18:42;35;34;
84751;PMS5003;74978;37.772;-122.432;2023-12-29T04:21:07;41;37;
84751;PMS5003;74978;37.772;-122.432;2023-12-29T04:23:33;39;36;
84751;PMS5003;74978;37.772;-122.432;2023-12-29T04:25:59;35;34;
84751;PMS5003;74978;37.772;-122.432;2023-12-29T04:28:24;40;39;
84751;PMS5003;74978;37.772;-122.432;2023-12-29T04:30:49;52;47;
84751;PMS5003;74978;37.772;-122.432;2023-12-29T04:33:14;47;45;
84751;PMS5003;74978;37.772;-122.432;2023-12-29T04:35:40;50;46;
84751;PMS5003;74978;37.772;-122.432;2023-12-29T04:38:05;38;34;
84751;PMS5003;74978;37.772;-122.432;2023-12-29T04:40:30;35;34;
84751;PMS5003;74978;37.772;-122.432;2023-12-29T04:42:56;39;37;
84751;PMS5003;74978;37.772;-122.432;2023-12-29T04:45:21;40;34;
84751;PMS5003;74978;37.772;-122.432;2023-12-29T04:47:47;39;39;
84751;PMS5003;74978;37.772;-122.432;2023-12-29T04:50:12;41;40;
84751;PMS5003;74978;37.772;-122.432;2023-12-29T04:52:38;43;41;
84751;PMS5003;74978;37.772;-122.432;2023-12-29T04:55:03;40;38;
84751;PMS5003;74978;37.772;-122.432;2023-12-29T04:57:28;40;38;
84751;PMS5003;74978;37.772;-122.432;2023-12-29T04:59:53;40;38;
84751;PMS5003;74978;37.772;-122.432;2023-12-29T05:02:20;39;34;
84751;PMS5003;74978;37.772;-122.432;2023-12-29T05:04:45;40;38;
84751;PMS5003;74978;37.772;-122.432;2023-12-29T05:07:11;43;40;
84751;PMS5003;74978;37.772;-122.432;2023-12-29T05:09:35;43;42;
84751;PMS5003;74978;37.772;-122.432;2023-12-29T05:12:01;42;39;
84751;PMS5003;74978;37.772;-122.432;2023-12-29T05:14:27;37;37;
84751;PMS5003;74978;37.772;-122.432;2023-12-29T05:16:51;51;47;
84751;PMS5003;74978;37.772;-122.432;2023-12-29T05:19:17;44;39;
84751;PMS5003;74978;37.772;-122.432;2023-12-29T05:21:42;43;40;
84751;PMS5003;74978;37.772;-122.432;2023-12-29T05:24:08;41;41;
84751;PMS5003;74978;37.772;-122.432;2023-12-29T05:26:33;41;39;
84751;PMS5003;74978;37.772;-122.432;2023-12-29T05:28:59;35;32;
84751;PMS5003;74978;37.772;-122.432;2023-12-29T05:31:24;38;37;
84751;PMS5003;74978;37.772;-122.432;2023-12-29T05:33:50;34;33;
84751;PMS5003;74978;37.772;-122.432;2023-12-29T05:36:15;36;33;
84751;PMS5003;74978;37.772;-122.432;2023-12-29T05:38:45;38;37;
84751;PMS5003;74978;37.772;-122.432;2023-12-29T05:41:07;32;32;
84751;PMS5003;74978;37.772;-122.432;2023-12-29T05:43:32;31;30;
84751;PMS5003;74978;37.772;-122.432;2023-12-29T05:45:57;35;31;
84751;PMS5003;74978;37.772;-122.432;2023-12-29T05:48:23;36;36;
84751;PMS5003;74978;37.772;-122.432;2023-12-29T05:50:48;31;27;
84751;PMS5003;74978;37.772;-122.432;2023-12-29T05:53:13;33;30;
84751;PMS5003;74978;37.772;-122.432;2023-12-29T05:55:38;26;26;
84751;PMS5003;74978;37.772;-122.432;2023-12-29T05:58:04;32;30;
84751;PMS5003;74978;37.772;-122.432;2023-12-29T06:00:29;29;29;
84751;PMS5003;74978;37.772;-122.432;2023-12-29T06:02:56;33;28;
84751;PMS5003;74978;37.772;-122.432;2023-12-29T06:05:20;29;26;
84751;PMS5003;74978;37.772;-122.432;2023-12-29T06:07:45;30;27;
84751;PMS5003;74978;37.772;-122.432;2023-12-29T06:10:11;27;26;
84751;PMS5003;74978;37.772;-122.432;2023-12-29T06:12:37;27;23;
84751;PMS5003;74978;37.772;-122.432;2023-12-29T06:15:02;28;28;
84751;PMS5003;74978;37.772;-122.432;2023-12-29T06:17:28;26;24;
84751;PMS5003;74978;37.772;-122.432;2023-12-29T06:19:54;30;30;
84751;PMS5003;74978;37.772;-122.432;2023-12-29T06:22:19;26;23;
84751;PMS5003;74978;37.772;-122.432;2023-12-29T06:24:44;31;28;
84751;PMS5003;74978;37.772;-122.432;2023-12-29T06:27:10;30;27;
84751;PMS5003;74978;37.772;-122.432;2023-12-29T06:29:35;31;28;
84751;PMS5003;74978;37.772;-122.432;2023-12-29T06:32:00;29;25;
84751;PMS5003;74978;37.772;-122.432;2023-12-29T06:34:26;28;24;
84751;PMS5003;74978;37.772;-122.432;2023-12-29T06:36:51;27;23;
84751;PMS5003;74978;37.772;-122.432;2023-12-29T06:39:17;23;22;
84751;PMS5003;74978;37.772;-122.432;2023-12-29T06:41:42;32;29;
84751;PMS5003;74978;37.772;-122.432;2023-12-29T06:44:08;30;27;
84751;PMS5003;74978;37.772;-122.432;2023-12-29T06:46:33;29;28;
84751;PMS5003;74978;37.772;-122.432;2023-12-29T06:48:59;28;28;
84751;PMS5003;74978;37.772;-122.432;2023-12-29T06:51:25;24;23;
84751;PMS5003;74978;37.772;-122.432;2023-12-29T06:53:50;27;24;
84751;PMS5003;74978;37.772;-122.432;2023-12-29T06:56:16;28;26;
84751;PMS5003;74978;37.772;-122.432;2023-12-29T06:58:41;30;26;
84751;PMS5003;74978;37.772;-122.432;2023-12-29T07:01:07;28;25;
84751;PMS5003;74978;37.772;-122.432;2023-12-29T07:03:33;29;29;
84751;PMS5003;74978;37.772;-122.432;2023-12-29T07:06:00;27;25;
84751;PMS5003;74978;37.772;-122.432;2023-12-29T07:08:24;34;29;
84751;PMS5003;74978;37.772;-122.432;2023-12-29T07:10:50;26;24;
84751;PMS5003;74978;37.772;-122.432;2023-12-29T07:13:15;32;29;
84751;PMS5003;74978;37.772;-122.432;2023-12-29T07:15:42;28;27;
84751;PMS5003;74978;37.772;-122.432;2023-12-29T07:18:06;31;28;
84751;PMS5003;74978;37.772;-122.432;2023-12-29T07:20:32;27;25;
84751;PMS5003;74978;37.772;-122.432;2023-12-29T07:22:57;31;31;
84751;PMS5003;74978;37.772;-122.432;2023-12-29T07:25:23;34;32;
84751;PMS5003;74978;37.772;-122.432;2023-12-29T07:27:49;27;26;
84751;PMS5003;74978;37.772;-122.432;2023-12-29T07:30:14;31;31;
84751;PMS5003;74978;37.772;-122.432;2023-12-29T07:32:40;36;31;
84751;PMS5003;74978;37.772;-122.432;2023-12-29T07:35:06;34;30;
84751;PMS5003;74978;37.772;-122.432;2023-12-29T07:37:31;30;30;
84751;PMS5003;74978;37.772;-122.432;2023-12-29T07:39:57;27;27;
84751;PMS5003;74978;37.772;-122.432;2023-12-29T07:42:21;40;38;
84751;PMS5003;74978;37.772;-122.432;2023-12-29T07:44:47;43;37;
84751;PMS5003;74978;37.772;-122.432;2023-12-29T07:47:13;40;33;
84751;PMS5003;74978;37.772;-122.432;2023-12-29T07:49:40;34;34;
84751;PMS5003;74978;37.772;-122.432;2023-12-29T07:52:04;36;31;
84751;PMS5003;74978;37.772;-122.432;2023-12-29T07:54:30;31;29;
84751;PMS5003;74978;37.772;-122.432;2023-12-29T07:56:55;37;33;
84751;PMS5003;74978;37.772;-122.432;2023-12-29T07:59:21;39;34;
84751;PMS5003;74978;37.772;-122.432;2023-12-29T08:01:47;30;28;
84751;PMS5003;74978;37.772;-122.432;2023-12-29T08:04:11;41;32;
84751;PMS5003;74978;37.772;-122.432;2023-12-29T08:06:37;36;33;
84751;PMS5003;74978;37.772;-122.432;2023-12-29T08:09:02;42;36;
84751;PMS5003;74978;37.772;-122.432;2023-12-29T08:11:27;36;33;
84751;PMS5003;74978;37.772;-122.432;2023-12-29T08:13:53;35;32;
84751;PMS5003;74978;37.772;-122.432;2023-12-29T08:16:18;32;31;
84751;PMS5003;74978;37.772;-122.432;2023-12-29T08:18:43;41;36;
84751;PMS5003;74978;37.772;-122.432;2023-12-29T08:21:08;35;31;
84751;PMS5003;74978;37.772;-122.432;2023-12-29T08:23:33;33;31;
84751;PMS5003;74978;37.772;-122.432;2023-12-29T08:25:59;34;29;
84751;PMS5003;74978;37.772;-122.432;2023-12-29T08:28:24;35;31;
84751;PMS5003;74978;37.772;-122.432;2023-12-29T08:30:50;35;34;
84751;PMS5003;74978;37.772;-122.432;2023-12-29T08:33:15;33;31;
84751;PMS5003;74978;37.772;-122.432;2023-12-29T08:35:41;41;35;
84751;PMS5003;74978;37.772;-122.432;2023-12-29T08:38:07;32;28;
84751;PMS5003;74978;37.772;-122.432;2023-12-29T08:40:32;34;29;
84751;PMS5003;74978;37.772;-122.432;2023-12-29T08:42:57;34;32;
84751;PMS5003;74978;37.772;-122.432;2023-12-29T08:45:23;34;33;
84751;PMS5003;74978;37.772;-122.432;2023-12-29T08:47:49;38;34;
84751;PMS5003;74978;37.772;-122.432;2023-12-29T08:50:14;57;53;
84751;PMS5003;74978;37.772;-122.432;2023-12-29T08:52:39;35;32;
84751;PMS5003;74978;37.772;-122.432;2023-12-29T08:55:05;34;32;
84751;PMS5003;74978;37.772;-122.432;2023-12-29T08:57:31;30;29;
84751;PMS5003;74978;37.772;-122.432;2023-12-29T08:59:56;30;29;
84751;PMS5003;74978;37.772;-122.432;2023-12-29T09:02:21;27;26;
84751;PMS5003;74978;37.772;-122.432;2023-12-29T09:04:46;29;28;
84751;PMS5003;74978;37.772;-122.432;2023-12-29T09:07:12;26;26;
84751;PMS5003;74978;37.772;-122.432;2023-12-29T09:09:37;26;25;
84751;PMS5003;74978;37.772;-122.432;2023-12-29T09:12:03;29;26;
84751;PMS5003;74978;37.772;-122.432;2023-12-29T09:14:29;33;28;
84751;PMS5003;74978;37.772;-122.432;2023-12-29T09:16:54;29;27;
84751;PMS5003;74978;37.772;-122.432;2023-12-29T09:19:20;30;29;
84751;PMS5003;74978;37.772;-122.432;2023-12-29T09:21:45;29;29;
84751;PMS5003;74978;37.772;-122.432;2023-12-29T09:24:11;30;28;
84751;PMS5003;74978;37.772;-122.432;2023-12-29T09:26:36;34;32;
84751;PMS5003;74978;37.772;-122.432;2023-12-29T09:29:01;36;36;
84751;PMS5003;74978;37.772;-122.432;2023-12-29T09:31:27;45;42;
84751;PMS5003;74978;37.772;-122.432;2023-12-29T09:33:53;41;38;
84751;PMS5003;74978;37.772;-122.432;2023-12-29T09:36:18;41;36;
84751;PMS5003;74978;37.772;-122.432;2023-12-29T09:38:44;26;25;
84751;PMS5003;74978;37.772;-122.432;2023-12-29T09:41:09;36;30;
84751;PMS5003;74978;37.772;-122.432;2023-12-29T09:43:34;31;31;
84751;PMS5003;74978;37.772;-122.432;2023-12-29T09:45:59;31;28;
84751;PMS5003;74978;37.772;-122.432;2023-12-29T09:48:24;32;31;
84751;PMS5003;74978;37.772;-122.432;2023-12-29T09:50:50;31;26;
84751;PMS5003;74978;37.772;-122.432;2023-12-29T09:53:15;31;29;
84751;PMS5003;74978;37.772;-122.432;2023-12-29T09:55:40;31;27;
84751;PMS5003;74978;37.772;-122.432;2023-12-29T09:58:06;31;31;
84751;PMS5003;74978;37.772;-122.432;2023-12-29T10:00:31;35;35;
84751;PMS5003;74978;37.772;-122.432;2023-12-29T10:02:57;33;33;
84751;PMS5003;74978;37.772;-122.432;2023-12-29T10:05:23;35;31;
84751;PMS5003;74978;37.772;-122.432;2023-12-29T10:07:48;39;35;
84751;PMS5003;74978;37.772;-122.432;2023-12-29T10:10:14;34;33;
84751;PMS5003;74978;37.772;-122.432;2023-12-29T10:12:39;44;31;
84751;PMS5003;74978;37.772;-122.432;2023-12-29T10:15:05;31;30;
84751;PMS5003;74978;37.772;-122.432;2023-12-29T10:17:31;25;25;
84751;PMS5003;74978;37.772;-122.432;2023-12-29T10:19:57;27;22;
84751;PMS5003;74978;37.772;-122.432;2023-12-29T10:22:21;36;32;
84751;PMS5003;74978;37.772;-122.432;2023-12-29T10:24:46;39;36;
84751;PMS5003;74978;37.772;-122.432;2023-12-29T10:27:12;34;32;
84751;PMS5003;74978;37.772;-122.432;2023-12-29T10:29:37;36;32;
84751;PMS5003;74978;37.772;-122.432;2023-12-29T10:32:03;30;29;
84751;PMS5003;74978;37.772;-122.432;2023-12-29T10:34:28;29;28;
84751;PMS5003;74978;37.772;-122.432;2023-12-29T10:36:54;35;31;
84751;PMS5003;74978;37.772;-122.432;2023-12-29T10:39:20;38;32;
84751;PMS5003;74978;37.772;-122.432;2023-12-29T10:41:45;34;31;
84751;PMS5003;74978;37.772;-122.432;2023-12-29T10:44:11;34;34;
84751;PMS5003;74978;37.772;-122.432;2023-12-29T10:46:37;29;28;
84751;PMS5003;74978;37.772;-122.432;2023-12-29T10:49:06;35;32;
84751;PMS5003;74978;37.772;-122.432;2023-12-29T10:51:28;35;32;
84751;PMS5003;74978;37.772;-122.432;2023-12-29T10:53:54;32;30;
84751;PMS5003;74978;37.772;-122.432;2023-12-29T10:56:19;35;30;
84751;PMS5003;74978;37.772;-122.432;2023-12-29T10:58:44;25;24;
84751;PMS5003;74978;37.772;-122.432;2023-12-29T11:01:13;33;30;
84751;PMS5003;74978;37.772;-122.432;2023-12-29T11:03:36;30;28;
84751;PMS5003;74978;37.772;-122.432;2023-12-29T11:06:01;30;27;
84751;PMS5003;74978;37.772;-122.432;2023-12-29T11:08:27;30;29;
84751;PMS5003;74978;37.772;-122.432;2023-12-29T11:10:52;28;27;
84751;PMS5003;74978;37.772;-122.432;2023-12-29T11:13:18;28;27;
84751;PMS5003;74978;37.772;-122.432;2023-12-29T11:15:45;28;25;
84751;PMS5003;74978;37.772;-122.432;2023-12-29T11:18:09;27;25;
84751;PMS5003;74978;37.772;-122.432;2023-12-29T11:20:35;39;34;
84751;PMS5003;74978;37.772;-122.432;2023-12-29T11:23:00;34;30;
84751;PMS5003;74978;37.772;-122.432;2023-12-29T11:25:26;34;31;
84751;PMS5003;74978;37.772;-122.432;2023-12-29T11:27:51;33;31;
84751;PMS5003;74978;37.772;-122.432;2023-12-29T11:30:16;33;30;
84751;PMS5003;74978;37.772;-122.432;2023-12-29T11:32:42;29;28;
84751;PMS5003;74978;37.772;-122.432;2023-12-29T11:35:11;38;32;
84751;PMS5003;74978;37.772;-122.432;2023-12-29T11:37:33;30;28;
84751;PMS5003;74978;37.772;-122.432;2023-12-29T11:40:02;28;25;
84751;PMS5003;74978;37.772;-122.432;2023-12-29T11:42:28;33;28;
84751;PMS5003;74978;37.772;-122.432;2023-12-29T11:44:49;32;29;
84751;PMS5003;74978;37.772;-122.432;2023-12-29T11:52:05;33;28;
84751;PMS5003;74978;37.772;-122.432;2023-12-29T11:54:31;34;34;
84751;PMS5003;74978;37.772;-122.432;2023-12-29T11:56:56;30;27;
84751;PMS5003;74978;37.772;-122.432;2023-12-29T11:59:21;30;29;
84751;PMS5003;74978;37.772;-122.432;2023-12-29T12:01:47;33;32;
84751;PMS5003;74978;37.772;-122.432;2023-12-29T12:06:38;28;26;
84751;PMS5003;74978;37.772;-122.432;2023-12-29T12:13:54;22;22;
84751;PMS5003;74978;37.772;-122.432;2023-12-29T12:18:44;27;24;
84751;PMS5003;74978;37.772;-122.432;2023-12-29T12:21:10;20;19;
84751;PMS5003;74978;37.772;-122.432;2023-12-29T12:23:36;21;21;
84751;PMS5003;74978;37.772;-122.432;2023-12-29T12:26:01;22;22;
84751;PMS5003;74978;37.772;-122.432;2023-12-29T12:28:27;24;24;
84751;PMS5003;74978;37.772;-122.432;2023-12-29T12:30:52;25;24;
84751;PMS5003;74978;37.772;-122.432;2023-12-29T12:33:18;29;24;
84751;PMS5003;74978;37.772;-122.432;2023-12-29T12:35:43;28;24;
84751;PMS5003;74978;37.772;-122.432;2023-12-29T12:38:10;22;20;
84751;PMS5003;74978;37.772;-122.432;2023-12-29T12:40:35;24;23;
84751;PMS5003;74978;37.772;-122.432;2023-12-29T12:43:00;26;24;
84751;PMS5003;74978;37.772;-122.432;2023-12-29T12:45:25;20;20;
84751;PMS5003;74978;37.772;-122.432;2023-12-29T12:47:52;22;20;
84751;PMS5003;74978;37.772;-122.432;2023-12-29T12:50:17;17;17;
84751;PMS5003;74978;37.772;-122.432;2023-12-29T12:52:43;19;19;
84751;PMS5003;74978;37.772;-122.432;2023-12-29T12:55:08;19;17;
84751;PMS5003;74978;37.772;-122.432;2023-12-29T12:57:34;17;14;
84751;PMS5003;74978;37.772;-122.432;2023-12-29T12:59:59;20;16;
84751;PMS5003;74978;37.772;-122.432;2023-12-29T13:02:25;17;16;
84751;PMS5003;74978;37.772;-122.432;2023-12-29T13:04:51;16;15;
84751;PMS5003;74978;37.772;-122.432;2023-12-29T13:07:16;18;17;
84751;PMS5003;74978;37.772;-122.432;2023-12-29T13:09:41;15;15;
84751;PMS5003;74978;37.772;-122.432;2023-12-29T13:12:08;19;19;
84751;PMS5003;74978;37.772;-122.432;2023-12-29T13:14:32;19;18;
84751;PMS5003;74978;37.772;-122.432;2023-12-29T13:16:58;14;12;
84751;PMS5003;74978;37.772;-122.432;2023-12-29T13:19:24;14;12;
84751;PMS5003;74978;37.772;-122.432;2023-12-29T13:21:49;11;11;
84751;PMS5003;74978;37.772;-122.432;2023-12-29T13:24:14;15;13;
84751;PMS5003;74978;37.772;-122.432;2023-12-29T13:26:39;11;10;
84751;PMS5003;74978;37.772;-122.432;2023-12-29T13:29:05;12;10;
84751;PMS5003;74978;37.772;-122.432;2023-12-29T13:31:30;16;12;
84751;PMS5003;74978;37.772;-122.432;2023-12-29T13:33:57;7;5;
84751;PMS5003;74978;37.772;-122.432;2023-12-29T13:36:23;4;3;
84751;PMS5003;74978;37.772;-122.432;2023-12-29T13:38:49;7;4;
84751;PMS5003;74978;37.772;-122.432;2023-12-29T13:41:13;1;1;
84751;PMS5003;74978;37.772;-122.432;2023-12-29T13:43:39;2;2;
84751;PMS5003;74978;37.772;-122.432;2023-12-29T13:46:04;0;0;
84751;PMS5003;74978;37.772;-122.432;2023-12-29T13:48:29;0;0;
84751;PMS5003;74978;37.772;-122.432;2023-12-29T13:50:54;0;0;
84751;PMS5003;74978;37.772;-122.432;2023-12-29T13:53:21;0;0;
84751;PMS5003;74978;37.772;-122.432;2023-12-29T13:55:45;0;0;
84751;PMS5003;74978;37.772;-122.432;2023-12-29T13:58:11;0;0;
84751;PMS5003;74978;37.772;-122.432;2023-12-29T14:00:37;1;0;
84751;PMS5003;74978;37.772;-122.432;2023-12-29T14:03:02;1;1;
84751;PMS5003;74978;37.772;-122.432;2023-12-29T14:05:31;0;0;
84751;PMS5003;74978;37.772;-122.432;2023-12-29T14:07:53;0;0;
84751;PMS5003;74978;37.772;-122.432;2023-12-29T14:10:18;0;0;
84751;PMS5003;74978;37.772;-122.432;2023-12-29T14:12:44;0;0;
84751;PMS5003;74978;37.772;-122.432;2023-12-29T14:15:10;0;0;
84751;PMS5003;74978;37.772;-122.432;2023-12-29T14:17:36;0;0;
84751;PMS5003;74978;37.772;-122.432;2023-12-29T14:20:00;1;1;
84751;PMS5003;74978;37.772;-122.432;2023-12-29T14:22:26;0;0;
84751;PMS5003;74978;37.772;-122.432;2023-12-29T14:27:17;1;1;
84751;PMS5003;74978;37.772;-122.432;2023-12-29T14:29:42;1;1;
84751;PMS5003;74978;37.772;-122.432;2023-12-29T14:32:08;0;0;
84751;PMS5003;74978;37.772;-122.432;2023-12-29T14:34:33;0;0;
84751;PMS5003;74978;37.772;-122.432;2023-12-29T14:37:00;0;0;
84751;PMS5003;74978;37.772;-122.432;2023-12-29T14:39:24;0;0;
84751;PMS5003;74978;37.772;-122.432;2023-12-29T14:41:50;1;0;
84751;PMS5003;74978;37.772;-122.432;2023-12-29T14:44:15;0;0;
84751;PMS5003;74978;37.772;-122.432;2023-12-29T14:46:41;2;0;
84751;PMS5003;74978;37.772;-122.432;2023-12-29T14:49:06;0;0;
84751;PMS5003;74978;37.772;-122.432;2023-12-29T14:51:32;0;0;
84751;PMS5003;74978;37.772;-122.432;2023-12-29T14:53:58;0;0;
84751;PMS5003;74978;37.772;-122.432;2023-12-29T14:56:23;0;0;
84751;PMS5003;74978;37.772;-122.432;2023-12-29T14:58:48;0;0;
84751;PMS5003;74978;37.772;-122.432;2023-12-29T15:01:14;0;0;
84751;PMS5003;74978;37.772;-122.432;2023-12-29T15:03:39;0;0;
84751;PMS5003;74978;37.772;-122.432;2023-12-29T15:06:05;0;0;
84751;PMS5003;74978;37.772;-122.432;2023-12-29T15:08:30;1;0;
84751;PMS5003;74978;37.772;-122.432;2023-12-29T15:10:56;0;0;
84751;PMS5003;74978;37.772;-122.432;2023-12-29T15:13:21;0;0;
84751;PMS5003;74978;37.772;-122.432;2023-12-29T15:15:47;0;0;
84751;PMS5003;74978;37.772;-122.432;2023-12-29T15:18:13;0;0;
84751;PMS5003;74978;37.772;-122.432;2023-12-29T15:20:38;1;1;
84751;PMS5003;74978;37.772;-122.432;2023-12-29T15:23:03;1;1;
84751;PMS5003;74978;37.772;-122.432;2023-12-29T15:25:29;1;1;
84751;PMS5003;74978;37.772;-122.432;2023-12-29T15:27:54;0;0;
84751;PMS5003;74978;37.772;-122.432;2023-12-29T15:30:21;0;0;
84751;PMS5003;74978;37.772;-122.432;2023-12-29T15:32:46;0;0;
84751;PMS5003;74978;37.772;-122.432;2023-12-29T15:35:11;2;1;
84751;PMS5003;74978;37.772;-122.432;2023-12-29T15:37:37;1;1;
84751;PMS5003;74978;37.772;-122.432;2023-12-29T15:40:02;0;0;